Vallensbaek, Denmark
Current Conditions -  °F | °C
As of 5:50 PM on Saturday 20 Dec 2014 (Local Time) from EKRK Reporting Station
Broken Clouds Broken Clouds  
Wind Chill: 31°   Ceiling: 2300
Heat Index: 41°   Visibility: 6mi
Dew Point: 36°   Wind: 22mph
Humidity: 81%   Direction: 300°WNW
Pressure: 29.47"   Gusts: 40mph
Location:  55.63°N, 12.37°E
Report Text: EKRK 201650Z AUTO 30019G35KT 9999NDV FEW019/// BKN023///BKN029/// 05/02 Q0998
Loading
Personal Weather Stations






























Interactive Weather Map New forecast layout! Learn more

10-Day Weather Forecast

Advertisements
Track Severe Weather on mobile